Time;durP1;ratioP1;P1;durP2;ratioP2;P2;SDS_P1;SDS_P2;PMS_P1;PMS_P2;Temp;Humidity;BMP_temperature;BMP_pressure;BME280_temperature;BME280_humidity;BME280_pressure;Samples;Min_cycle;Max_cycle;Signal;HPM_P1;HPM_P2
2024/01/17 00:01:12;;;;;;;9.90;3.47;;;-5.30;99.90;;;;;;5035209;28;20033;-61
2024/01/17 00:03:38;;;;;;;8.40;3.13;;;-5.30;99.90;;;;;;5041100;28;20386;-61
2024/01/17 00:06:03;;;;;;;11.60;3.42;;;-5.30;99.90;;;;;;5032962;28;20044;-61
2024/01/17 00:08:29;;;;;;;4.72;2.92;;;-5.30;99.90;;;;;;5034818;28;20046;-61
2024/01/17 00:10:55;;;;;;;12.82;3.13;;;-5.40;99.90;;;;;;5022945;28;20049;-61
2024/01/17 00:13:21;;;;;;;8.35;2.95;;;-5.40;99.90;;;;;;5041809;28;20057;-61
2024/01/17 00:15:46;;;;;;;8.63;3.45;;;-5.40;99.90;;;;;;5035116;28;20059;-61
2024/01/17 00:18:12;;;;;;;17.58;4.50;;;-5.50;99.90;;;;;;5032852;28;20037;-59
2024/01/17 00:20:37;;;;;;;8.77;3.13;;;-5.50;99.90;;;;;;5024827;28;20512;-61
2024/01/17 00:23:03;;;;;;;11.35;3.80;;;-5.60;99.90;;;;;;5023011;28;20038;-60
2024/01/17 00:25:28;;;;;;;14.25;3.72;;;-5.60;99.90;;;;;;5021389;28;20048;-61
2024/01/17 00:27:54;;;;;;;13.45;3.72;;;-5.50;99.90;;;;;;5025548;28;20076;-61
2024/01/17 00:30:19;;;;;;;11.73;4.40;;;-5.60;99.90;;;;;;5032001;22;20044;-61
2024/01/17 00:32:45;;;;;;;13.02;4.60;;;-5.50;99.90;;;;;;5096291;28;20505;-61
2024/01/17 00:35:11;;;;;;;14.82;5.13;;;-5.40;99.90;;;;;;5082628;28;20468;-60
2024/01/17 00:37:36;;;;;;;14.73;4.18;;;-5.30;99.90;;;;;;5087341;28;20046;-60
2024/01/17 00:40:02;;;;;;;12.95;5.40;;;-5.30;99.90;;;;;;5091129;28;20027;-61
2024/01/17 00:42:29;;;;;;;19.90;6.82;;;-5.30;99.90;;;;;;5087041;28;20035;-60
2024/01/17 00:44:54;;;;;;;16.27;5.65;;;-5.20;99.90;;;;;;5088763;28;20392;-60
2024/01/17 00:47:20;;;;;;;11.52;5.47;;;-5.10;99.90;;;;;;5087659;28;20042;-61
2024/01/17 00:49:46;;;;;;;12.25;4.80;;;-5.00;99.90;;;;;;5087831;28;20043;-61
2024/01/17 00:52:11;;;;;;;22.20;4.75;;;-5.10;99.90;;;;;;5086483;28;20195;-61
2024/01/17 00:54:37;;;;;;;11.70;4.72;;;-5.10;99.90;;;;;;5091840;28;20690;-60
2024/01/17 00:57:03;;;;;;;16.55;5.43;;;-5.10;99.90;;;;;;5085377;28;20047;-60
2024/01/17 00:59:29;;;;;;;14.20;5.28;;;-5.20;99.90;;;;;;5088957;28;20568;-59
2024/01/17 01:01:55;;;;;;;15.27;5.28;;;-5.10;99.90;;;;;;5087007;28;20036;-60
2024/01/17 01:04:20;;;;;;;11.75;4.85;;;-5.20;99.90;;;;;;5086332;28;20033;-61
2024/01/17 01:06:46;;;;;;;15.07;5.13;;;-5.20;99.90;;;;;;5082041;28;20062;-61
2024/01/17 01:09:12;;;;;;;14.48;4.82;;;-5.30;99.90;;;;;;5090776;28;20407;-61
2024/01/17 01:11:37;;;;;;;11.95;4.63;;;-5.30;99.90;;;;;;5078961;28;20040;-60
2024/01/17 01:14:03;;;;;;;12.60;5.13;;;-5.30;99.90;;;;;;5085757;28;20132;-61
2024/01/17 01:16:29;;;;;;;22.10;5.53;;;-5.40;99.90;;;;;;5086566;28;20127;-61
2024/01/17 01:18:54;;;;;;;18.35;5.72;;;-5.30;99.90;;;;;;5088749;28;20040;-59
2024/01/17 01:21:20;;;;;;;18.75;5.20;;;-5.40;99.90;;;;;;5086116;28;20032;-61
2024/01/17 01:23:46;;;;;;;15.80;6.13;;;-5.40;99.90;;;;;;5083505;28;20126;-61
2024/01/17 01:26:14;;;;;;;12.48;5.05;;;-5.40;99.90;;;;;;5084575;28;20079;-61
2024/01/17 01:28:39;;;;;;;13.93;5.38;;;-5.40;99.90;;;;;;5088314;28;20051;-61
2024/01/17 01:31:05;;;;;;;18.35;5.85;;;-5.40;99.90;;;;;;5081987;28;20040;-62
2024/01/17 01:33:33;;;;;;;16.30;5.50;;;-5.40;99.90;;;;;;5085661;28;20177;-61
2024/01/17 01:35:58;;;;;;;12.38;5.65;;;-5.40;99.90;;;;;;5092758;28;20051;-62
2024/01/17 01:38:25;;;;;;;16.63;6.00;;;-5.40;99.90;;;;;;5088181;28;20040;-62
2024/01/17 01:40:51;;;;;;;17.70;6.10;;;-5.40;99.90;;;;;;5085061;28;20424;-61
2024/01/17 01:43:17;;;;;;;16.67;6.47;;;-5.40;99.90;;;;;;5090865;28;20036;-62
2024/01/17 01:45:43;;;;;;;14.57;6.22;;;-5.40;99.90;;;;;;5083370;28;20146;-62
2024/01/17 01:48:08;;;;;;;11.85;5.60;;;-5.40;99.90;;;;;;5084005;28;20127;-60
2024/01/17 01:50:34;;;;;;;15.65;6.20;;;-5.30;99.90;;;;;;5082249;28;20037;-59
2024/01/17 01:52:59;;;;;;;18.67;6.63;;;-5.30;99.90;;;;;;5083342;28;20070;-63
2024/01/17 01:55:25;;;;;;;14.50;6.20;;;-5.30;99.90;;;;;;5088416;28;20130;-61
2024/01/17 01:57:51;;;;;;;14.10;5.57;;;-5.30;99.90;;;;;;5087041;28;20040;-60
2024/01/17 02:00:17;;;;;;;21.40;6.20;;;-5.30;99.90;;;;;;5085255;28;20024;-61
2024/01/17 02:02:44;;;;;;;10.15;5.95;;;-5.30;99.90;;;;;;5092191;28;20040;-61
2024/01/17 02:05:10;;;;;;;11.63;5.30;;;-5.20;99.90;;;;;;5090106;28;20044;-61
2024/01/17 02:07:38;;;;;;;17.45;6.03;;;-5.20;99.90;;;;;;5086099;28;20040;-59
2024/01/17 02:10:04;;;;;;;11.30;5.10;;;-5.20;99.90;;;;;;5083025;28;20691;-60
2024/01/17 02:12:31;;;;;;;14.32;6.15;;;-5.20;99.90;;;;;;5085844;28;20055;-59
2024/01/17 02:14:57;;;;;;;12.02;6.07;;;-5.20;99.90;;;;;;5084791;28;20119;-61
2024/01/17 02:17:22;;;;;;;11.27;5.82;;;-5.10;99.90;;;;;;5085811;28;20132;-59
2024/01/17 02:19:48;;;;;;;16.58;7.05;;;-5.10;99.90;;;;;;5083891;28;20525;-61
2024/01/17 02:22:14;;;;;;;13.75;6.18;;;-5.10;99.90;;;;;;5090086;28;20035;-62
2024/01/17 02:24:39;;;;;;;13.63;6.60;;;-5.10;99.90;;;;;;5086966;28;20040;-61
2024/01/17 02:27:05;;;;;;;25.40;6.45;;;-5.10;99.90;;;;;;5077977;28;20036;-61
2024/01/17 02:29:31;;;;;;;14.43;5.88;;;-5.10;99.90;;;;;;5079297;28;20453;-62
2024/01/17 02:31:57;;;;;;;17.42;6.05;;;-5.10;99.90;;;;;;5086476;28;20715;-61
2024/01/17 02:34:23;;;;;;;10.05;5.32;;;-5.10;99.90;;;;;;5083166;28;20041;-60
2024/01/17 02:36:48;;;;;;;16.15;5.95;;;-5.10;99.90;;;;;;5085588;28;20048;-62
2024/01/17 02:39:15;;;;;;;11.38;4.65;;;-5.20;99.90;;;;;;5080562;28;20033;-62
2024/01/17 02:41:42;;;;;;;14.32;6.22;;;-5.10;99.90;;;;;;5079702;28;20557;-61
2024/01/17 02:44:08;;;;;;;13.45;5.82;;;-5.10;99.90;;;;;;5082264;28;20046;-62
2024/01/17 02:46:33;;;;;;;16.15;5.18;;;-5.00;99.90;;;;;;5085320;28;20040;-61
2024/01/17 02:48:59;;;;;;;11.73;5.63;;;-5.00;99.90;;;;;;5085497;28;20047;-62
2024/01/17 02:51:25;;;;;;;18.02;5.25;;;-5.00;99.90;;;;;;5081709;28;20135;-62
2024/01/17 02:53:51;;;;;;;17.98;5.63;;;-5.00;99.90;;;;;;5081576;28;20082;-61
2024/01/17 02:56:17;;;;;;;9.65;4.95;;;-5.00;99.90;;;;;;5085344;28;20059;-62
2024/01/17 02:58:42;;;;;;;17.00;6.57;;;-5.00;99.90;;;;;;5086873;28;20078;-62
2024/01/17 03:01:08;;;;;;;14.63;5.20;;;-5.00;99.90;;;;;;5078199;28;20048;-60
2024/01/17 03:03:34;;;;;;;14.25;5.20;;;-5.00;99.90;;;;;;5087737;28;20515;-61
2024/01/17 03:06:01;;;;;;;12.43;5.40;;;-4.90;99.90;;;;;;5085839;28;20071;-60
2024/01/17 03:08:27;;;;;;;15.38;6.38;;;-4.90;99.90;;;;;;5087159;28;20040;-59
2024/01/17 03:10:52;;;;;;;10.48;5.53;;;-4.90;99.90;;;;;;5089571;28;20100;-59
2024/01/17 03:13:18;;;;;;;14.43;5.63;;;-4.90;99.90;;;;;;5087621;28;20044;-62
2024/01/17 03:15:43;;;;;;;12.35;5.32;;;-4.90;99.90;;;;;;5083807;28;20047;-61
2024/01/17 03:18:13;;;;;;;13.90;5.93;;;-4.90;99.90;;;;;;5086742;28;20047;-60
2024/01/17 03:20:40;;;;;;;13.63;5.38;;;-4.90;99.90;;;;;;5084875;28;20040;-61
2024/01/17 03:23:06;;;;;;;13.68;5.63;;;-4.90;99.90;;;;;;5085694;28;20040;-61
2024/01/17 03:25:32;;;;;;;13.90;5.43;;;-4.80;99.90;;;;;;5085982;28;20051;-60
2024/01/17 03:27:58;;;;;;;9.65;5.15;;;-4.80;99.90;;;;;;5085247;28;20451;-61
2024/01/17 03:30:23;;;;;;;16.13;5.40;;;-4.80;99.90;;;;;;5081752;28;20054;-62
2024/01/17 03:32:49;;;;;;;12.98;5.10;;;-4.80;99.90;;;;;;5087697;28;20032;-61
2024/01/17 03:35:14;;;;;;;12.77;5.00;;;-4.70;99.90;;;;;;5085493;28;20515;-63
2024/01/17 03:37:40;;;;;;;11.18;4.68;;;-4.70;99.90;;;;;;5085564;28;20036;-61
2024/01/17 03:40:06;;;;;;;10.55;4.53;;;-4.70;99.90;;;;;;5080055;28;20093;-61
2024/01/17 03:42:32;;;;;;;12.05;5.50;;;-4.70;99.90;;;;;;5080477;28;20048;-61
2024/01/17 03:44:57;;;;;;;11.05;4.82;;;-4.70;99.90;;;;;;5084286;28;20214;-62
2024/01/17 03:47:23;;;;;;;11.85;4.57;;;-4.70;99.90;;;;;;5084565;28;20028;-61
2024/01/17 03:49:48;;;;;;;10.20;4.22;;;-4.60;99.90;;;;;;5084291;28;20079;-62
2024/01/17 03:52:15;;;;;;;19.45;5.38;;;-4.50;99.90;;;;;;5081401;28;20617;-62
2024/01/17 03:54:41;;;;;;;12.70;5.38;;;-4.50;99.90;;;;;;5088009;28;20058;-63
2024/01/17 03:57:08;;;;;;;13.52;4.68;;;-4.40;99.90;;;;;;5087346;28;20514;-62
2024/01/17 03:59:34;;;;;;;9.43;4.60;;;-4.50;99.90;;;;;;5090525;28;20050;-61
2024/01/17 04:01:59;;;;;;;11.70;5.20;;;-4.50;99.90;;;;;;5085450;28;20036;-60
2024/01/17 04:04:25;;;;;;;8.55;4.43;;;-4.50;99.90;;;;;;5095084;28;20081;-61
2024/01/17 04:06:51;;;;;;;14.73;4.85;;;-4.50;99.90;;;;;;5089288;28;20036;-59
2024/01/17 04:09:17;;;;;;;13.45;5.20;;;-4.50;99.90;;;;;;5090516;28;20040;-62
2024/01/17 04:11:42;;;;;;;11.45;4.68;;;-4.50;99.90;;;;;;5085741;28;20032;-62
2024/01/17 04:14:08;;;;;;;8.13;4.22;;;-4.60;99.90;;;;;;5089432;28;20040;-61
2024/01/17 04:16:36;;;;;;;12.60;5.70;;;-4.60;99.90;;;;;;5089120;28;20120;-61
2024/01/17 04:19:02;;;;;;;14.88;5.90;;;-4.60;99.90;;;;;;5090560;28;20048;-61
2024/01/17 04:21:28;;;;;;;17.15;6.80;;;-4.50;99.90;;;;;;5088247;28;20043;-62
2024/01/17 04:23:53;;;;;;;14.52;6.47;;;-4.50;99.90;;;;;;5091724;28;20038;-61
2024/01/17 04:26:24;;;;;;;15.50;6.70;;;-4.40;99.90;;;;;;5089895;28;20052;-59
2024/01/17 04:28:50;;;;;;;15.88;6.28;;;-4.40;99.90;;;;;;5085918;28;20036;-62
2024/01/17 04:31:29;;;;;;;13.77;6.38;;;-4.30;99.90;;;;;;5089456;28;20036;-62
2024/01/17 04:33:56;;;;;;;19.63;8.38;;;-4.30;99.90;;;;;;5089754;28;20530;-60
2024/01/17 04:36:24;;;;;;;15.75;6.78;;;-4.30;99.90;;;;;;5089379;28;20115;-60
2024/01/17 04:38:49;;;;;;;17.50;6.85;;;-4.30;99.90;;;;;;5092534;28;20044;-61
2024/01/17 04:41:16;;;;;;;12.02;7.05;;;-4.30;99.90;;;;;;5086935;28;20407;-60
2024/01/17 04:43:42;;;;;;;14.15;6.20;;;-4.30;99.90;;;;;;5094220;28;20036;-61
2024/01/17 04:46:12;;;;;;;16.55;6.10;;;-4.30;99.90;;;;;;5089790;28;20321;-60
2024/01/17 04:48:40;;;;;;;14.07;5.45;;;-4.40;99.90;;;;;;5089349;28;20040;-61
2024/01/17 04:51:06;;;;;;;15.88;6.18;;;-4.40;99.90;;;;;;5086487;28;20054;-62
2024/01/17 04:53:32;;;;;;;12.75;5.20;;;-4.50;99.90;;;;;;5075222;28;20032;-62
2024/01/17 04:55:59;;;;;;;11.07;5.10;;;-4.50;99.90;;;;;;5083253;28;20577;-61
2024/01/17 04:58:26;;;;;;;14.20;6.10;;;-4.50;99.90;;;;;;5095243;28;20043;-61
2024/01/17 05:00:52;;;;;;;21.13;6.30;;;-4.50;99.90;;;;;;5085563;28;20115;-60
2024/01/17 05:03:19;;;;;;;10.13;5.28;;;-4.50;99.90;;;;;;5087971;28;20044;-61
2024/01/17 05:05:45;;;;;;;13.90;5.25;;;-4.50;99.90;;;;;;5082515;28;20093;-58
2024/01/17 05:08:11;;;;;;;19.13;5.32;;;-4.50;99.90;;;;;;5084235;28;20036;-61
2024/01/17 05:10:37;;;;;;;11.18;4.80;;;-4.50;99.90;;;;;;5081985;28;20036;-59
2024/01/17 05:13:03;;;;;;;12.88;4.88;;;-4.50;99.90;;;;;;5093223;28;20050;-61
2024/01/17 05:15:28;;;;;;;13.85;6.10;;;-4.50;99.90;;;;;;5087139;28;20083;-59
2024/01/17 05:17:54;;;;;;;18.55;5.45;;;-4.60;99.90;;;;;;5088618;28;20035;-59
2024/01/17 05:20:20;;;;;;;19.02;6.38;;;-4.60;99.90;;;;;;5086424;28;20674;-61
2024/01/17 05:22:46;;;;;;;15.85;5.68;;;-4.60;99.90;;;;;;5085585;28;20032;-61
2024/01/17 05:25:11;;;;;;;10.93;4.63;;;-4.50;99.90;;;;;;5088817;28;20752;-61
2024/01/17 05:27:37;;;;;;;16.60;5.05;;;-4.40;99.90;;;;;;5077570;28;20043;-61
2024/01/17 05:30:04;;;;;;;10.38;4.35;;;-4.40;99.90;;;;;;5087820;28;20040;-58
2024/01/17 05:32:30;;;;;;;11.40;4.55;;;-4.40;99.90;;;;;;5085382;28;20048;-60
2024/01/17 05:34:56;;;;;;;16.90;4.80;;;-4.30;99.90;;;;;;5089061;28;20553;-58
2024/01/17 05:37:23;;;;;;;8.93;4.03;;;-4.40;99.90;;;;;;5082049;28;20123;-61
2024/01/17 05:39:49;;;;;;;13.23;4.82;;;-4.40;99.90;;;;;;5083338;28;20036;-59
2024/01/17 05:42:15;;;;;;;18.67;5.70;;;-4.40;99.90;;;;;;5087777;28;20042;-61
2024/01/17 05:44:40;;;;;;;10.98;4.00;;;-4.40;99.90;;;;;;5088598;28;20039;-61
2024/01/17 05:47:07;;;;;;;9.57;3.35;;;-4.40;99.90;;;;;;5082205;28;20036;-60
2024/01/17 05:49:33;;;;;;;11.65;4.32;;;-4.30;99.90;;;;;;5080271;28;20587;-60
2024/01/17 05:51:58;;;;;;;13.98;4.07;;;-4.30;99.90;;;;;;5086313;28;20196;-61
2024/01/17 05:54:24;;;;;;;13.38;4.40;;;-4.30;99.90;;;;;;5081934;28;20064;-61
2024/01/17 05:56:51;;;;;;;11.23;4.55;;;-4.40;99.90;;;;;;5085128;28;20083;-60
2024/01/17 05:59:16;;;;;;;10.35;3.95;;;-4.30;99.90;;;;;;5085668;28;20069;-61
2024/01/17 06:01:42;;;;;;;10.65;4.53;;;-4.40;99.90;;;;;;5090563;28;20090;-61
2024/01/17 06:04:08;;;;;;;11.73;3.75;;;-4.30;99.90;;;;;;5085473;28;20032;-57
2024/01/17 06:06:33;;;;;;;16.40;4.18;;;-4.30;99.90;;;;;;5087709;28;20032;-60
2024/01/17 06:08:59;;;;;;;11.95;3.92;;;-4.30;99.90;;;;;;5093262;28;20478;-60
2024/01/17 06:11:24;;;;;;;9.15;3.53;;;-4.40;99.90;;;;;;5087942;28;20042;-60
2024/01/17 06:13:51;;;;;;;7.65;3.33;;;-4.40;99.90;;;;;;5088895;28;20597;-60
2024/01/17 06:16:17;;;;;;;8.15;3.60;;;-4.40;99.90;;;;;;5086568;28;20137;-59
2024/01/17 06:18:43;;;;;;;12.57;4.32;;;-4.40;99.90;;;;;;5088598;28;20650;-59
2024/01/17 06:21:08;;;;;;;7.97;3.38;;;-4.30;99.90;;;;;;5090584;28;20032;-60
2024/01/17 06:23:34;;;;;;;12.15;3.95;;;-4.30;99.90;;;;;;5086953;28;20036;-59
2024/01/17 06:25:59;;;;;;;12.60;4.05;;;-4.20;99.90;;;;;;5085777;28;20047;-61
2024/01/17 06:28:25;;;;;;;11.45;3.92;;;-4.20;99.90;;;;;;5091902;28;20050;-59
2024/01/17 06:30:50;;;;;;;11.93;3.97;;;-4.10;99.90;;;;;;5082594;27;20047;-59
2024/01/17 06:33:18;;;;;;;12.77;4.13;;;-4.00;99.90;;;;;;5085969;28;20044;-61
2024/01/17 06:35:47;;;;;;;7.85;3.85;;;-4.00;99.90;;;;;;5085240;28;20399;-60
2024/01/17 06:38:13;;;;;;;14.60;4.50;;;-4.00;99.90;;;;;;5087429;28;20032;-61
2024/01/17 06:40:38;;;;;;;10.52;4.10;;;-4.00;99.90;;;;;;5085914;28;20040;-62
2024/01/17 06:43:06;;;;;;;10.95;4.88;;;-4.00;99.90;;;;;;5089237;28;20040;-60
2024/01/17 06:45:31;;;;;;;15.57;3.83;;;-4.00;99.90;;;;;;5092486;28;20146;-62
2024/01/17 06:47:59;;;;;;;6.55;3.50;;;-4.00;99.90;;;;;;5088162;28;20115;-61
2024/01/17 06:50:24;;;;;;;11.57;4.07;;;-4.00;99.90;;;;;;5083301;28;20590;-61
2024/01/17 06:52:50;;;;;;;12.07;4.20;;;-4.00;99.90;;;;;;5087351;28;20170;-63
2024/01/17 06:55:16;;;;;;;15.52;4.07;;;-4.00;99.90;;;;;;5083494;28;20035;-62
2024/01/17 06:57:41;;;;;;;10.82;3.83;;;-4.00;99.90;;;;;;5084957;28;20028;-62
2024/01/17 07:00:08;;;;;;;11.10;4.00;;;-4.00;99.90;;;;;;5082922;28;20039;-64
2024/01/17 07:02:34;;;;;;;11.77;4.28;;;-3.90;99.90;;;;;;5079720;28;20044;-63
2024/01/17 07:04:59;;;;;;;8.55;4.03;;;-3.90;99.90;;;;;;5082770;28;20456;-63
2024/01/17 07:07:25;;;;;;;7.32;3.70;;;-3.80;99.90;;;;;;5091595;28;20073;-63
2024/01/17 07:09:50;;;;;;;9.55;3.45;;;-3.80;99.90;;;;;;5086635;28;20032;-62
2024/01/17 07:12:16;;;;;;;8.32;4.10;;;-3.80;99.90;;;;;;5084861;28;20395;-62
2024/01/17 07:14:42;;;;;;;13.13;4.15;;;-3.80;99.90;;;;;;5088973;28;20089;-65
2024/01/17 07:17:08;;;;;;;11.23;3.83;;;-3.80;99.90;;;;;;5080376;28;20147;-62
2024/01/17 07:19:40;;;;;;;13.60;4.03;;;-3.80;99.90;;;;;;5082499;28;20126;-59
2024/01/17 07:22:07;;;;;;;13.27;4.78;;;-3.70;99.90;;;;;;5081881;28;20042;-61
2024/01/17 07:24:32;;;;;;;7.38;3.67;;;-3.70;99.90;;;;;;5084912;28;20048;-62
2024/01/17 07:26:58;;;;;;;17.60;6.97;;;-3.70;99.90;;;;;;5087287;28;20166;-63
2024/01/17 07:29:23;;;;;;;13.45;4.45;;;-3.70;99.90;;;;;;5095592;28;20040;-61
2024/01/17 07:31:50;;;;;;;10.85;4.30;;;-3.70;99.90;;;;;;5081287;28;20040;-62
2024/01/17 07:34:16;;;;;;;36.38;8.00;;;-3.70;99.90;;;;;;5088151;28;20120;-58
2024/01/17 07:36:41;;;;;;;13.18;5.13;;;-3.70;99.90;;;;;;5087530;28;20473;-64
2024/01/17 07:39:10;;;;;;;11.85;3.83;;;-3.70;99.90;;;;;;5086212;28;20052;-65
2024/01/17 07:41:36;;;;;;;9.43;3.40;;;-3.60;99.90;;;;;;5086677;28;20070;-62
2024/01/17 07:44:03;;;;;;;17.83;4.72;;;-3.60;99.90;;;;;;5092126;28;20060;-61
2024/01/17 07:46:28;;;;;;;13.50;4.07;;;-3.50;99.90;;;;;;5087356;28;20132;-62
2024/01/17 07:48:54;;;;;;;9.38;3.95;;;-3.40;99.90;;;;;;5084478;28;20114;-62
2024/01/17 07:51:19;;;;;;;8.57;3.83;;;-3.40;99.90;;;;;;5088535;28;20436;-57
2024/01/17 07:53:45;;;;;;;8.60;3.90;;;-3.30;99.90;;;;;;5083541;28;20036;-61
2024/01/17 07:56:11;;;;;;;8.82;3.75;;;-3.30;99.90;;;;;;5082483;28;20040;-61
2024/01/17 07:58:36;;;;;;;8.73;3.88;;;-3.30;99.90;;;;;;5088168;28;20068;-62
2024/01/17 08:01:02;;;;;;;9.88;3.42;;;-3.20;99.90;;;;;;5086812;28;20075;-61
2024/01/17 08:03:28;;;;;;;7.10;3.40;;;-3.20;99.90;;;;;;5088974;28;20100;-61
2024/01/17 08:05:53;;;;;;;7.45;3.45;;;-3.10;99.90;;;;;;5088940;28;20574;-61
2024/01/17 08:08:19;;;;;;;11.93;3.85;;;-3.10;99.90;;;;;;5085806;28;20093;-61
2024/01/17 08:10:44;;;;;;;7.70;3.40;;;-3.00;99.90;;;;;;5087073;28;20119;-61
2024/01/17 08:13:11;;;;;;;10.95;3.72;;;-3.00;99.90;;;;;;5082710;28;20503;-61
2024/01/17 08:15:36;;;;;;;6.53;3.60;;;-3.00;99.90;;;;;;5089766;28;20044;-61
2024/01/17 08:18:03;;;;;;;11.40;3.33;;;-2.90;99.90;;;;;;5088041;28;20135;-59
2024/01/17 08:20:28;;;;;;;10.93;4.68;;;-2.90;99.90;;;;;;5088283;28;20125;-62
2024/01/17 08:22:54;;;;;;;8.40;3.55;;;-2.90;99.90;;;;;;5086382;28;20035;-61
2024/01/17 08:25:20;;;;;;;9.15;3.25;;;-2.80;99.90;;;;;;5087693;28;20032;-62
2024/01/17 08:27:45;;;;;;;5.90;3.13;;;-2.70;99.90;;;;;;5086893;28;20567;-61
2024/01/17 08:30:11;;;;;;;8.93;3.83;;;-2.70;99.90;;;;;;5085980;27;20096;-61
2024/01/17 08:32:37;;;;;;;7.53;3.20;;;-2.70;99.90;;;;;;5089161;28;20097;-61
2024/01/17 08:35:03;;;;;;;8.20;3.60;;;-2.60;99.90;;;;;;5089457;28;20044;-61
2024/01/17 08:37:29;;;;;;;9.70;3.15;;;-2.60;99.90;;;;;;5087674;28;20113;-62
2024/01/17 08:39:55;;;;;;;8.50;2.78;;;-2.50;99.90;;;;;;5089007;28;20032;-61
2024/01/17 08:42:21;;;;;;;7.38;2.90;;;-2.40;99.90;;;;;;5086852;28;20037;-61
2024/01/17 08:44:46;;;;;;;6.18;2.55;;;-2.30;99.90;;;;;;5088838;28;20051;-61
2024/01/17 08:47:12;;;;;;;8.30;2.60;;;-2.20;99.90;;;;;;5085759;28;20036;-61
2024/01/17 08:49:39;;;;;;;4.28;2.25;;;-2.20;99.90;;;;;;5089966;28;20048;-62
2024/01/17 08:52:05;;;;;;;5.88;2.80;;;-2.10;99.90;;;;;;5086199;28;20487;-61
2024/01/17 08:54:31;;;;;;;5.30;2.30;;;-2.00;99.90;;;;;;5087984;28;20089;-62
2024/01/17 08:56:56;;;;;;;4.25;2.38;;;-2.00;99.90;;;;;;5087049;28;20116;-62
2024/01/17 08:59:22;;;;;;;4.53;2.28;;;-1.90;99.90;;;;;;5088288;28;20034;-61
2024/01/17 09:01:48;;;;;;;6.20;2.15;;;-1.90;99.90;;;;;;5090459;28;20040;-60
2024/01/17 09:04:13;;;;;;;5.90;2.60;;;-1.80;99.90;;;;;;5091472;28;20043;-61
2024/01/17 09:06:39;;;;;;;5.38;2.40;;;-1.80;99.90;;;;;;5082677;28;20051;-61
2024/01/17 09:09:06;;;;;;;3.72;2.05;;;-1.70;99.90;;;;;;5087709;28;20051;-60
2024/01/17 09:11:31;;;;;;;6.55;2.78;;;-1.60;99.90;;;;;;5087822;28;20072;-61
2024/01/17 09:13:57;;;;;;;4.88;2.40;;;-1.50;99.90;;;;;;5085017;28;20506;-62
2024/01/17 09:16:23;;;;;;;6.22;2.47;;;-1.40;99.90;;;;;;5087280;28;20046;-62
2024/01/17 09:18:49;;;;;;;5.45;2.95;;;-1.40;99.90;;;;;;5086190;28;20044;-61
2024/01/17 09:21:14;;;;;;;8.25;2.05;;;-1.30;99.90;;;;;;5082103;28;20047;-62
2024/01/17 09:23:40;;;;;;;4.15;2.25;;;-1.30;99.90;;;;;;5086873;28;20101;-62
2024/01/17 09:26:06;;;;;;;6.00;2.80;;;-1.20;99.90;;;;;;5089047;28;20483;-64
2024/01/17 09:28:31;;;;;;;4.63;2.10;;;-1.20;99.90;;;;;;5084702;28;20043;-62
2024/01/17 09:30:57;;;;;;;4.75;2.13;;;-1.20;99.90;;;;;;5086765;27;20043;-62
2024/01/17 09:33:23;;;;;;;7.10;2.20;;;-1.10;99.90;;;;;;5084103;28;20127;-61
2024/01/17 09:35:48;;;;;;;4.38;2.15;;;-1.20;99.90;;;;;;5084672;28;20123;-62
2024/01/17 09:38:14;;;;;;;3.83;2.42;;;-1.10;99.90;;;;;;5082615;28;20036;-62
2024/01/17 09:40:40;;;;;;;7.15;2.40;;;-1.00;99.90;;;;;;5087029;28;20043;-61
2024/01/17 09:43:08;;;;;;;4.72;2.47;;;-1.00;99.90;;;;;;5065172;22;20423;-62
2024/01/17 09:45:33;;;;;;;9.23;2.40;;;-1.00;99.90;;;;;;5066812;28;20045;-62
2024/01/17 09:48:02;;;;;;;11.82;4.25;;;-0.80;99.90;;;;;;5062550;28;20048;-62
2024/01/17 09:50:27;;;;;;;5.13;2.42;;;-0.80;99.90;;;;;;5068459;28;20097;-63
2024/01/17 09:52:58;;;;;;;8.60;2.88;;;-0.70;99.90;;;;;;5066076;28;20459;-62
2024/01/17 09:55:27;;;;;;;6.40;2.80;;;-0.80;99.90;;;;;;5068251;28;20628;-61
2024/01/17 09:57:56;;;;;;;5.85;2.72;;;-0.70;99.90;;;;;;5069463;28;20052;-61
2024/01/17 10:00:22;;;;;;;6.63;2.58;;;-0.70;99.90;;;;;;5060714;28;20036;-63
2024/01/17 10:02:49;;;;;;;7.93;2.60;;;-0.60;99.90;;;;;;5071315;28;20052;-61
2024/01/17 10:05:17;;;;;;;4.78;2.42;;;-0.60;99.90;;;;;;5072861;28;20040;-62
2024/01/17 10:07:45;;;;;;;4.13;2.60;;;-0.50;99.90;;;;;;5069062;28;20113;-61
2024/01/17 10:10:10;;;;;;;8.10;2.53;;;-0.40;99.90;;;;;;5072003;28;20044;-60
2024/01/17 10:12:37;;;;;;;7.63;2.75;;;-0.20;99.90;;;;;;5067921;28;20064;-61
2024/01/17 10:15:06;;;;;;;5.03;2.17;;;-0.20;99.90;;;;;;5067300;28;20071;-61
2024/01/17 10:17:35;;;;;;;4.70;2.38;;;-0.10;99.90;;;;;;5053370;28;20124;-60
2024/01/17 10:20:02;;;;;;;3.97;2.10;;;-0.10;99.90;;;;;;5066723;28;20060;-61
2024/01/17 10:22:27;;;;;;;4.55;2.20;;;0.00;99.90;;;;;;5066231;28;20132;-61
2024/01/17 10:24:53;;;;;;;4.63;2.50;;;0.00;99.90;;;;;;5072478;28;20230;-61
2024/01/17 10:27:19;;;;;;;4.13;1.90;;;0.00;99.90;;;;;;5066766;28;20098;-62
2024/01/17 10:29:44;;;;;;;7.35;2.78;;;0.10;99.90;;;;;;5068372;28;20047;-60
2024/01/17 10:32:10;;;;;;;3.90;2.05;;;0.00;99.90;;;;;;5065180;28;20135;-60
2024/01/17 10:34:39;;;;;;;6.05;2.00;;;0.10;99.90;;;;;;5070000;28;20394;-61
2024/01/17 10:37:05;;;;;;;3.72;1.80;;;0.20;99.90;;;;;;5047632;28;20052;-63
2024/01/17 10:39:31;;;;;;;5.88;2.45;;;0.20;99.90;;;;;;5065679;28;20131;-61
2024/01/17 10:41:59;;;;;;;6.50;2.40;;;0.30;99.90;;;;;;5048568;28;20551;-61
2024/01/17 10:44:25;;;;;;;6.55;2.33;;;0.40;99.90;;;;;;5064059;28;20056;-62
2024/01/17 10:46:52;;;;;;;4.30;2.22;;;0.50;99.90;;;;;;5062503;28;20036;-62
2024/01/17 10:49:18;;;;;;;7.03;2.38;;;0.60;99.90;;;;;;5068665;28;20056;-61
2024/01/17 10:52:07;;;;;;;3.17;1.98;;;0.50;99.90;;;;;;5064590;28;20082;-61
2024/01/17 10:55:04;;;;;;;7.47;2.45;;;0.50;99.90;;;;;;5057471;28;20040;-62
2024/01/17 10:57:32;;;;;;;5.18;2.70;;;0.50;99.90;;;;;;5062187;28;20106;-62
2024/01/17 11:00:02;;;;;;;6.20;2.22;;;0.60;99.90;;;;;;5063175;28;20044;-62
2024/01/17 11:02:29;;;;;;;5.05;2.72;;;0.60;99.90;;;;;;5063613;28;20036;-62
2024/01/17 11:05:01;;;;;;;4.43;2.67;;;0.60;99.90;;;;;;5070699;28;20044;-62
2024/01/17 11:07:27;;;;;;;7.15;3.00;;;0.60;99.90;;;;;;5029501;28;20083;-63
2024/01/17 11:09:53;;;;;;;6.53;3.33;;;0.60;99.90;;;;;;5066704;28;20041;-62
2024/01/17 11:12:21;;;;;;;5.75;2.67;;;0.50;99.90;;;;;;5061147;28;20029;-62
2024/01/17 11:14:50;;;;;;;6.00;2.65;;;0.50;99.90;;;;;;5062844;28;20110;-63
2024/01/17 11:17:17;;;;;;;4.85;3.00;;;0.50;99.90;;;;;;5049046;28;20097;-61
2024/01/17 11:19:44;;;;;;;4.45;2.22;;;0.60;99.90;;;;;;5064532;28;20584;-64
2024/01/17 11:22:12;;;;;;;4.05;2.38;;;0.60;99.90;;;;;;5063345;28;20048;-64
2024/01/17 11:24:55;;;;;;;3.88;2.47;;;0.60;99.90;;;;;;5063948;28;20147;-62
2024/01/17 11:27:35;;;;;;;8.77;2.53;;;0.70;99.90;;;;;;5060432;28;20036;-60
2024/01/17 11:30:40;;;;;;;5.30;2.65;;;0.60;99.90;;;;;;5064425;28;20137;-63
2024/01/17 11:33:13;;;;;;;4.13;2.47;;;0.70;99.90;;;;;;5062249;28;20036;-62
2024/01/17 11:35:50;;;;;;;6.93;2.55;;;0.80;99.90;;;;;;5062783;28;20389;-63
2024/01/17 11:38:22;;;;;;;5.75;2.45;;;0.80;99.90;;;;;;5066034;28;20037;-61
2024/01/17 11:40:50;;;;;;;3.70;2.03;;;0.90;99.90;;;;;;5060176;28;20037;-62
2024/01/17 11:43:16;;;;;;;3.88;2.08;;;1.00;99.90;;;;;;5064458;28;20048;-63
2024/01/17 11:45:42;;;;;;;5.13;2.47;;;1.10;99.90;;;;;;5065877;28;20044;-60
2024/01/17 11:48:16;;;;;;;3.55;1.80;;;1.00;99.90;;;;;;5062758;28;20094;-61
2024/01/17 11:50:41;;;;;;;4.05;2.00;;;1.10;99.90;;;;;;5064525;28;20044;-61
2024/01/17 11:53:07;;;;;;;4.65;1.90;;;1.20;99.90;;;;;;5066309;28;20417;-63
2024/01/17 11:55:48;;;;;;;3.60;1.80;;;1.20;99.90;;;;;;5062573;28;20029;-62
2024/01/17 11:58:15;;;;;;;2.90;1.80;;;1.30;99.90;;;;;;5064528;28;20086;-62
2024/01/17 12:00:41;;;;;;;3.17;1.40;;;1.30;99.90;;;;;;5063951;28;20060;-62
2024/01/17 12:03:06;;;;;;;5.53;1.90;;;1.40;99.90;;;;;;5062176;28;20439;-63
2024/01/17 12:05:36;;;;;;;5.15;1.80;;;1.50;99.90;;;;;;5062426;28;20171;-62
2024/01/17 12:08:05;;;;;;;3.45;1.40;;;1.50;99.90;;;;;;5044548;28;20124;-59
2024/01/17 12:10:31;;;;;;;2.28;1.48;;;1.40;99.90;;;;;;5042015;28;20049;-62
2024/01/17 12:12:58;;;;;;;5.75;1.48;;;1.50;99.90;;;;;;5045918;28;20049;-62
2024/01/17 12:15:23;;;;;;;3.83;1.55;;;1.50;99.90;;;;;;5048233;28;20049;-62
2024/01/17 12:17:50;;;;;;;2.45;1.60;;;1.50;99.90;;;;;;5051174;28;20410;-63
2024/01/17 12:20:18;;;;;;;3.45;1.55;;;1.50;99.90;;;;;;5051257;28;20045;-61
2024/01/17 12:22:50;;;;;;;1.67;1.10;;;1.60;99.90;;;;;;5050747;28;20047;-59
2024/01/17 12:25:20;;;;;;;2.60;1.17;;;1.60;99.90;;;;;;5048408;28;20121;-62
2024/01/17 12:27:56;;;;;;;3.67;1.70;;;1.60;99.90;;;;;;5051380;28;20041;-62
2024/01/17 12:30:22;;;;;;;1.83;1.10;;;1.60;99.90;;;;;;5051580;28;20041;-62
2024/01/17 12:32:50;;;;;;;5.15;1.55;;;1.60;99.90;;;;;;5051802;28;20044;-61
2024/01/17 12:35:15;;;;;;;2.80;1.23;;;1.60;99.90;;;;;;5049278;28;20381;-61
2024/01/17 12:37:41;;;;;;;4.70;1.00;;;1.60;99.90;;;;;;5052868;28;20056;-62
2024/01/17 12:40:08;;;;;;;2.97;1.48;;;1.70;99.90;;;;;;5052606;28;20067;-62